Flight Track Log - Related Links

Times and Time Zones

All times are in EDT time to prevent confusion due to time zone crossing. See the EMD21 flight status page for this flight to view local times or setup timezone preferences in your user account.

Time Position Orientation Groundspeed Altitude Reporting Facility
EDT Latitude Longitude Course Direction KTS MPH feet Rate Location/Type
Sat 05:38:00 PM 35.0971 -94.6502 224° Southwest  Level FlightAware Approximate
Sat 05:39:00 PM 35.0554 -94.6946 219° Southwest  Level FlightAware Approximate
Sat 05:40:00 PM 35.0167 -94.7429 227° Southwest  Level FlightAware Approximate
Sat 05:40:29 PM 35.0897 -94.6328 225° Southwest 146 168 12,000  Level Fort Worth Center
Sat 05:41:00 PM 34.9786 -94.7919 227° Southwest  Level FlightAware Approximate
Sat 05:41:29 PM 35.0553 -94.6794 228° Southwest 163 188 12,000  Level Fort Worth Center
Sat 05:42:00 PM 34.9405 -94.8408 226° Southwest  Level FlightAware Approximate
Sat 05:42:29 PM 35.0167 -94.7264 225° Southwest 203 234 12,000  Level Fort Worth Center
Sat 05:43:00 PM 34.8986 -94.8848 219° Southwest  Level FlightAware Approximate
Sat 05:43:29 PM 34.9761 -94.7783 226° Southwest 214 246 12,000  Level Fort Worth Center
Sat 05:44:00 PM 34.8581 -94.9307 225° Southwest  Level FlightAware Approximate
Sat 05:44:29 PM 34.9333 -94.8353 228° Southwest 214 246 12,000  Level Fort Worth Center
Sat 05:45:00 PM 34.8190 -94.9784 225° Southwest  Level FlightAware Approximate
Sat 05:45:29 PM 34.8906 -94.8872 225° Southwest 219 252 12,000  Level Fort Worth Center
Sat 05:46:29 PM 34.8500 -94.9392 226° Southwest 219 252 12,000  Level Fort Worth Center
Sat 05:47:29 PM 34.8133 -94.9831 225° Southwest 219 252 12,000  Level Fort Worth Center
Sat 05:48:29 PM 34.7725 -95.0347 226° Southwest 214 246 12,000  Level Fort Worth Center
Sat 05:49:29 PM 34.7278 -95.0917 226° Southwest 214 246 12,000  Level Fort Worth Center
Sat 05:50:29 PM 34.6869 -95.1408 225° Southwest 214 246 12,000  Level Fort Worth Center
Sat 05:51:29 PM 34.6461 -95.1922 226° Southwest 219 252 12,000  Level Fort Worth Center
Sat 05:52:29 PM 34.6053 -95.2414 225° Southwest 219 252 12,000  Level Fort Worth Center
Sat 05:53:29 PM 34.5603 -95.2953 225° Southwest 226 260 12,000  Level Fort Worth Center
Sat 05:54:29 PM 34.5256 -95.3342 223° Southwest 215 247 12,000  Level Fort Worth Center
Sat 05:55:29 PM 34.4847 -95.3853 226° Southwest 214 246 12,000  Level Fort Worth Center
Sat 05:56:29 PM 34.4356 -95.4444 225° Southwest 224 258 12,000  Level Fort Worth Center
Sat 05:57:29 PM 34.4008 -95.4906 228° Southwest 212 244 12,000  Level Fort Worth Center
Sat 05:58:29 PM 34.3597 -95.5392 224° Southwest 212 244 12,000  Level Fort Worth Center
Sat 05:59:29 PM 34.3083 -95.5983 224° Southwest 218 251 12,000 -50 Level Fort Worth Center
Sat 06:00:29 PM 34.2675 -95.6519 227° Southwest 218 251 11,900 -50 Descending Fort Worth Center
Sat 06:01:29 PM 34.2325 -95.6978 227° Southwest 218 251 11,900 -100 Level Fort Worth Center
Sat 06:02:29 PM 34.1875 -95.7489 223° Southwest 218 251 11,700 -250 Descending Fort Worth Center
Sat 06:03:29 PM 34.1483 -95.7972 226° Southwest 224 258 11,400 -400 Descending Fort Worth Center
Sat 06:04:29 PM 34.1053 -95.8483 225° Southwest 224 258 10,900 -550 Descending Fort Worth Center
Sat 06:05:29 PM 34.0683 -95.8967 227° Southwest 224 258 10,300 -450 Descending Fort Worth Center
Sat 06:06:29 PM 34.0292 -95.9475 227° Southwest 224 258 10,000 -150 Descending Fort Worth Center
Sat 06:07:29 PM 33.9858 -95.9956 223° Southwest 219 252 10,000  Level Fort Worth Center
Sat 06:08:29 PM 33.9425 -96.0439 223° Southwest 219 252 10,000 -250 Level Fort Worth Center
Sat 06:09:29 PM 33.9036 -96.0972 229° Southwest 214 246 9,500 -450 Descending Fort Worth Center
Sat 06:10:29 PM 33.8581 -96.1478 223° Southwest 219 252 9,100 -750 Descending Fort Worth Center
Sat 06:11:29 PM 33.8086 -96.2061 224° Southwest 225 259 8,000 -550 Descending Fort Worth Center
Sat 06:12:29 PM 33.7694 -96.2567 227° Southwest 225 259 8,000 -200 Level Fort Worth Center
Sat 06:13:29 PM 33.7200 -96.3122 223° Southwest 224 258 7,600 -400 Descending Fort Worth Center
Sat 06:14:29 PM 33.6806 -96.3600 225° Southwest 229 264 7,200 -450 Descending Fort Worth Center
Sat 06:15:29 PM 33.6331 -96.4181 226° Southwest 224 258 6,700 -550 Descending Fort Worth Center
Sat 06:16:29 PM 33.5917 -96.4683 225° Southwest 224 258 6,100 -350 Descending Fort Worth Center
Sat 06:17:29 PM 33.5442 -96.5236 224° Southwest 224 258 6,000 -50 Descending Fort Worth Center
Sat 06:18:29 PM 33.5047 -96.5689 224° Southwest 224 258 6,000  Level Fort Worth Center
Sat 06:19:29 PM 33.4592 -96.6142 220° Southwest 218 251 6,000  Level Fort Worth Center
Sat 06:20:29 PM 33.4178 -96.6719 229° Southwest 218 251 6,000  Level Fort Worth Center
Sat 06:21:29 PM 33.3806 -96.7169 225° Southwest 218 251 6,000  Level Fort Worth Center
Sat 06:22:29 PM 33.3347 -96.7694 224° Southwest 211 243 6,000  Level Fort Worth Center
Sat 06:23:29 PM 33.2975 -96.8119 224° Southwest 211 243 6,000  Level Fort Worth Center
Sat 06:24:29 PM 33.2517 -96.8644 224° Southwest 211 243 6,000  Level Fort Worth Center
Sat 06:25:29 PM 33.2103 -96.9144 225° Southwest 216 249 6,000  Level Fort Worth Center
Sat 06:26:29 PM 33.1667 -96.9642 224° Southwest 211 243 6,000  Level Fort Worth Center
Sat 06:27:29 PM 33.1167 -96.9967 209° Southwest 211 243 6,000  Level Fort Worth Center
Sat 06:27:45 PM 33.1000 -97.0000 190° South 204 235 6,000  Level Dallas / Fort Worth TRACON
Sat 06:28:44 PM 33.0500 -97.0167 196° South 207 238 6,000  Level Dallas / Fort Worth TRACON
Sat 06:29:44 PM 33.0333 -97.0833 253° West 216 249 6,000  Level Dallas / Fort Worth TRACON
Sat 06:30:29 PM 33.0147 -97.1311 245° Southwest 199 229 6,000 -743 Level Fort Worth Center
Sat 06:31:29 PM 32.9856 -97.1981 243° Southwest 212 244 4,700 -1,300 Descending Fort Worth Center
Sat 06:32:29 PM 32.9461 -97.2600 233° Southwest 223 257 3,400 -857 Descending Fort Worth Center
Sat 06:34:38 PM 32.8833 -97.3667 235° Southwest 137 158 2,000 -698 Descending Dallas / Fort Worth TRACON
Sat 06:35:38 PM 32.8500 -97.3667 180° South 116 133 1,200 -800 Descending Dallas / Fort Worth TRACON
Sat 06:37:00 PM 32.8167 -97.3500 220° Southwest  Level FlightAware Approximate
Sat 06:44:00 PM 32.8198 -97.3624 220° Southwest  Level Estimated

Login

Don't have an account? Register now (free) for customized features, flight alerts, and more!